createdAt,value
2022-08-26T00:01:33.297Z,100.00
2022-08-26T00:04:01.317Z,100.00
2022-08-26T00:06:28.728Z,100.00
2022-08-26T00:08:55.195Z,100.00
2022-08-26T00:11:26.822Z,100.00
2022-08-26T00:13:54.689Z,100.00
2022-08-26T00:16:22.047Z,100.00
2022-08-26T00:18:48.602Z,100.00
2022-08-26T00:21:15.949Z,100.00
2022-08-26T00:23:42.561Z,100.00
2022-08-26T00:26:08.999Z,100.00
2022-08-26T00:28:37.974Z,100.00
2022-08-26T00:31:07.262Z,100.00
2022-08-26T00:33:33.802Z,100.00
2022-08-26T00:36:01.619Z,100.00
2022-08-26T00:38:30.249Z,100.00
2022-08-26T00:40:57.389Z,100.00
2022-08-26T00:43:25.127Z,100.00
2022-08-26T00:46:04.723Z,100.00
2022-08-26T00:48:33.851Z,100.00
2022-08-26T00:51:11.699Z,100.00
2022-08-26T00:53:44.734Z,100.00
2022-08-26T00:56:20.834Z,100.00
2022-08-26T00:58:48.091Z,100.00
2022-08-26T01:01:15.089Z,100.00
2022-08-26T01:03:43.241Z,100.00
2022-08-26T01:06:12.626Z,100.00
2022-08-26T01:08:39.842Z,100.00
2022-08-26T01:11:06.823Z,100.00
2022-08-26T01:13:36.348Z,100.00
2022-08-26T01:16:05.431Z,100.00
2022-08-26T01:18:33.301Z,100.00
2022-08-26T01:21:06.087Z,100.00
2022-08-26T01:23:41.112Z,100.00
2022-08-26T01:26:27.563Z,100.00
2022-08-26T01:28:58.060Z,100.00
2022-08-26T01:31:31.080Z,100.00
2022-08-26T01:34:19.635Z,100.00
2022-08-26T01:36:51.426Z,100.00
2022-08-26T01:39:18.862Z,100.00
2022-08-26T01:41:46.178Z,100.00
2022-08-26T01:44:17.191Z,100.00
2022-08-26T01:46:46.310Z,100.00
2022-08-26T01:49:14.186Z,100.00
2022-08-26T01:51:44.408Z,100.00
2022-08-26T01:54:13.755Z,100.00
2022-08-26T01:56:40.586Z,100.00
2022-08-26T01:59:10.790Z,100.00
2022-08-26T02:01:38.859Z,100.00
2022-08-26T02:04:10.896Z,100.00
2022-08-26T02:06:38.615Z,100.00
2022-08-26T02:09:07.879Z,100.00
2022-08-26T02:11:35.092Z,100.00
2022-08-26T02:14:19.178Z,100.00
2022-08-26T02:16:48.909Z,100.00
2022-08-26T02:19:24.571Z,100.00
2022-08-26T02:21:52.229Z,100.00
2022-08-26T02:24:22.799Z,100.00
2022-08-26T02:26:50.945Z,100.00
2022-08-26T02:29:25.077Z,100.00
2022-08-26T02:31:52.462Z,100.00
2022-08-26T02:34:26.537Z,100.00
2022-08-26T02:37:01.940Z,100.00
2022-08-26T02:39:29.773Z,100.00
2022-08-26T02:41:56.656Z,100.00
2022-08-26T02:44:23.173Z,100.00
2022-08-26T02:46:49.661Z,100.00
2022-08-26T02:49:17.321Z,100.00
2022-08-26T02:51:43.783Z,100.00
2022-08-26T02:54:10.289Z,100.00
2022-08-26T02:56:37.377Z,100.00
2022-08-26T02:59:04.111Z,100.00
2022-08-26T03:01:34.207Z,100.00
2022-08-26T03:04:02.449Z,100.00
2022-08-26T03:06:29.613Z,100.00
2022-08-26T03:08:56.587Z,100.00
2022-08-26T03:11:23.843Z,100.00
2022-08-26T03:13:51.792Z,100.00
2022-08-26T03:16:18.827Z,100.00
2022-08-26T03:18:51.989Z,100.00
2022-08-26T03:21:19.977Z,100.00
2022-08-26T03:23:46.516Z,100.00
2022-08-26T03:26:15.161Z,100.00
2022-08-26T03:29:01.542Z,100.00
2022-08-26T03:31:29.663Z,100.00
2022-08-26T03:33:59.599Z,100.00
2022-08-26T03:36:26.478Z,100.00
2022-08-26T03:38:53.459Z,100.00
2022-08-26T03:41:21.326Z,100.00
2022-08-26T03:43:50.621Z,100.00
2022-08-26T03:46:18.550Z,100.00
2022-08-26T03:48:45.746Z,100.00
2022-08-26T03:51:19.100Z,100.00
2022-08-26T03:53:46.433Z,100.00
2022-08-26T03:56:12.877Z,100.00
2022-08-26T03:58:39.611Z,100.00
2022-08-26T04:01:09.397Z,100.00
2022-08-26T04:03:54.492Z,100.00
2022-08-26T04:06:20.922Z,100.00
2022-08-26T04:08:48.023Z,100.00
2022-08-26T04:11:28.447Z,100.00
2022-08-26T04:13:59.471Z,100.00
2022-08-26T04:16:28.345Z,100.00
2022-08-26T04:18:56.475Z,100.00
2022-08-26T04:21:23.606Z,100.00
2022-08-26T04:23:50.416Z,100.00
2022-08-26T04:26:19.698Z,100.00
2022-08-26T04:28:50.791Z,100.00
2022-08-26T04:31:18.878Z,100.00
2022-08-26T04:33:47.548Z,100.00
2022-08-26T04:36:16.182Z,100.00
2022-08-26T04:38:43.103Z,100.00
2022-08-26T04:41:15.630Z,100.00
2022-08-26T04:43:44.733Z,100.00
2022-08-26T04:46:13.073Z,100.00
2022-08-26T04:48:40.894Z,100.00
2022-08-26T04:51:07.623Z,100.00
2022-08-26T04:53:34.786Z,100.00
2022-08-26T04:56:01.320Z,100.00
2022-08-26T04:58:30.367Z,100.00
2022-08-26T05:00:56.943Z,100.00
2022-08-26T05:03:24.606Z,100.00
2022-08-26T05:05:51.419Z,100.00
2022-08-26T05:08:19.598Z,100.00
2022-08-26T05:10:48.791Z,100.00
2022-08-26T05:13:18.078Z,100.00
2022-08-26T05:15:48.299Z,100.00
2022-08-26T05:18:20.046Z,100.00
2022-08-26T05:20:49.860Z,100.00
2022-08-26T05:23:17.606Z,100.00
2022-08-26T05:25:47.148Z,100.00
2022-08-26T05:28:16.827Z,100.00
2022-08-26T05:30:44.490Z,100.00
2022-08-26T05:33:12.025Z,100.00
2022-08-26T05:35:39.106Z,100.00
2022-08-26T05:38:12.855Z,100.00
2022-08-26T05:40:44.560Z,100.00
2022-08-26T05:43:11.964Z,100.00
2022-08-26T05:45:46.173Z,100.00
2022-08-26T05:48:14.973Z,100.00
2022-08-26T05:50:46.227Z,100.00
2022-08-26T05:53:14.471Z,100.00
2022-08-26T05:55:45.443Z,100.00
2022-08-26T05:58:13.111Z,100.00
2022-08-26T06:00:40.299Z,100.00
2022-08-26T06:03:08.630Z,100.00
2022-08-26T06:05:41.837Z,100.00
2022-08-26T06:08:11.715Z,100.00
2022-08-26T06:10:45.225Z,100.00
2022-08-26T06:13:13.015Z,100.00
2022-08-26T06:15:47.561Z,100.00
2022-08-26T06:18:17.030Z,100.00
2022-08-26T06:20:57.354Z,100.00
2022-08-26T06:23:45.277Z,100.00
2022-08-26T06:26:13.132Z,100.00
2022-08-26T06:28:39.588Z,100.00
2022-08-26T06:31:06.232Z,100.00
2022-08-26T06:33:33.361Z,100.00
2022-08-26T06:36:01.060Z,100.00
2022-08-26T06:38:27.882Z,100.00
2022-08-26T06:40:59.689Z,100.00
2022-08-26T06:43:28.090Z,100.00
2022-08-26T06:46:07.211Z,100.00
2022-08-26T06:48:34.373Z,100.00
2022-08-26T06:51:07.320Z,100.00
2022-08-26T06:53:33.762Z,99.58
2022-08-26T06:56:04.104Z,97.18
2022-08-26T06:58:31.298Z,97.96
2022-08-26T07:01:03.108Z,97.01
2022-08-26T07:03:39.591Z,95.37
2022-08-26T07:06:06.368Z,94.14
2022-08-26T07:08:33.978Z,94.29
2022-08-26T07:11:05.370Z,92.60
2022-08-26T07:13:31.845Z,92.24
2022-08-26T07:16:02.942Z,92.10
2022-08-26T07:18:30.858Z,91.24
2022-08-26T07:20:57.315Z,91.37
2022-08-26T07:23:23.742Z,90.02
2022-08-26T07:25:50.810Z,89.22
2022-08-26T07:28:17.260Z,87.51
2022-08-26T07:30:43.770Z,86.66
2022-08-26T07:33:10.234Z,86.28
2022-08-26T07:35:37.836Z,84.86
2022-08-26T07:38:04.310Z,86.14
2022-08-26T07:40:32.024Z,84.69
2022-08-26T07:42:58.542Z,84.97
2022-08-26T07:45:27.716Z,83.91
2022-08-26T07:47:54.421Z,83.41
2022-08-26T07:50:22.369Z,82.29
2022-08-26T07:53:10.757Z,81.97
2022-08-26T07:55:37.479Z,80.85
2022-08-26T07:58:05.563Z,80.73
2022-08-26T08:00:33.267Z,80.00
2022-08-26T08:03:02.656Z,79.47
2022-08-26T08:05:33.596Z,79.23
2022-08-26T08:08:26.306Z,79.31
2022-08-26T08:10:49.063Z,78.76
2022-08-26T08:13:15.794Z,78.14
2022-08-26T08:15:42.297Z,76.24
2022-08-26T08:18:15.299Z,76.86
2022-08-26T08:20:47.684Z,76.93
2022-08-26T08:23:25.805Z,77.19
2022-08-26T08:26:01.568Z,75.25
2022-08-26T08:28:28.635Z,75.99
2022-08-26T08:30:56.003Z,75.22
2022-08-26T08:33:22.609Z,74.55
2022-08-26T08:35:49.206Z,74.87
2022-08-26T08:38:16.601Z,74.18
2022-08-26T08:40:45.672Z,74.26
2022-08-26T08:43:24.703Z,73.38
2022-08-26T08:45:57.619Z,73.69
2022-08-26T08:48:29.477Z,72.58
2022-08-26T08:51:08.488Z,71.36
2022-08-26T08:53:39.176Z,72.16
2022-08-26T08:56:39.900Z,71.27
2022-08-26T08:59:12.804Z,72.79
2022-08-26T09:01:52.451Z,70.84
2022-08-26T09:05:02.916Z,71.47
2022-08-26T09:07:37.521Z,70.44
2022-08-26T09:10:28.891Z,69.85
2022-08-26T09:12:55.514Z,70.77
2022-08-26T09:15:30.330Z,69.15
2022-08-26T09:18:10.921Z,69.75
2022-08-26T09:20:49.484Z,66.86
2022-08-26T09:23:17.165Z,67.69
2022-08-26T09:26:00.308Z,67.66
2022-08-26T09:28:30.308Z,67.64
2022-08-26T09:31:13.122Z,67.81
2022-08-26T09:33:41.105Z,68.79
2022-08-26T09:36:34.433Z,68.24
2022-08-26T09:39:29.684Z,67.90
2022-08-26T09:42:11.759Z,67.41
2022-08-26T09:44:59.496Z,67.15
2022-08-26T09:47:28.516Z,67.44
2022-08-26T09:50:21.548Z,66.74
2022-08-26T09:53:09.843Z,68.08
2022-08-26T09:55:41.991Z,68.18
2022-08-26T09:58:13.695Z,67.83
2022-08-26T10:00:43.573Z,67.70
2022-08-26T10:03:15.603Z,67.17
2022-08-26T10:05:54.129Z,67.21
2022-08-26T10:08:23.740Z,67.24
2022-08-26T10:10:53.353Z,67.83
2022-08-26T10:13:40.988Z,67.71
2022-08-26T10:16:25.480Z,67.04
2022-08-26T10:19:10.511Z,66.53
2022-08-26T10:21:44.933Z,66.61
2022-08-26T10:24:17.770Z,68.25
2022-08-26T10:27:03.777Z,66.71
2022-08-26T10:29:47.393Z,66.83
2022-08-26T10:32:21.737Z,67.52
2022-08-26T10:34:48.224Z,67.44
2022-08-26T10:37:19.241Z,67.54
2022-08-26T10:39:59.057Z,67.46
2022-08-26T10:42:35.438Z,66.68
2022-08-26T10:45:11.665Z,66.01
2022-08-26T10:48:03.420Z,66.27
2022-08-26T10:50:38.651Z,66.41
2022-08-26T10:53:25.221Z,66.71
2022-08-26T10:56:18.932Z,65.81
2022-08-26T10:58:57.720Z,65.71
2022-08-26T11:01:44.182Z,62.48
2022-08-26T11:04:35.334Z,63.06
2022-08-26T11:07:41.760Z,61.79
2022-08-26T11:10:09.854Z,62.18
2022-08-26T11:12:36.223Z,62.71
2022-08-26T11:15:13.316Z,65.12
2022-08-26T11:17:46.162Z,65.75
2022-08-26T11:20:27.739Z,66.64
2022-08-26T11:22:56.559Z,67.48
2022-08-26T11:25:30.033Z,67.82
2022-08-26T11:27:59.830Z,69.37
2022-08-26T11:30:42.656Z,71.30
2022-08-26T11:33:10.407Z,72.50
2022-08-26T11:35:37.492Z,74.20
2022-08-26T11:38:28.199Z,76.83
2022-08-26T11:40:59.703Z,79.75
2022-08-26T11:43:30.473Z,79.08
2022-08-26T11:46:05.730Z,78.22
2022-08-26T11:48:36.803Z,79.22
2022-08-26T11:51:24.435Z,80.39
2022-08-26T11:53:51.369Z,81.49
2022-08-26T11:56:28.766Z,84.13
2022-08-26T11:59:02.153Z,84.71
2022-08-26T12:01:35.487Z,88.01
2022-08-26T12:04:07.970Z,88.56
2022-08-26T12:06:43.353Z,93.12
2022-08-26T12:09:20.638Z,95.50
2022-08-26T12:11:47.150Z,98.06
2022-08-26T12:14:20.786Z,99.33
2022-08-26T12:16:47.737Z,100.00
2022-08-26T12:19:32.998Z,100.00
2022-08-26T12:22:23.532Z,100.00
2022-08-26T12:24:58.393Z,100.00
2022-08-26T12:27:39.900Z,100.00
2022-08-26T12:30:18.003Z,100.00
2022-08-26T12:32:57.642Z,100.00
2022-08-26T12:35:25.609Z,100.00
2022-08-26T12:37:54.156Z,100.00
2022-08-26T12:40:46.125Z,100.00
2022-08-26T12:43:34.166Z,100.00
2022-08-26T12:46:00.679Z,100.00
2022-08-26T12:48:33.582Z,100.00
2022-08-26T12:51:00.666Z,100.00
2022-08-26T12:53:35.196Z,100.00
2022-08-26T12:56:20.606Z,100.00
2022-08-26T12:59:01.024Z,100.00
2022-08-26T13:01:27.792Z,100.00
2022-08-26T13:03:54.407Z,100.00
2022-08-26T13:06:20.771Z,100.00
2022-08-26T13:08:48.716Z,100.00
2022-08-26T13:11:20.486Z,100.00
2022-08-26T13:13:51.643Z,100.00
2022-08-26T13:16:19.644Z,100.00
2022-08-26T13:19:01.749Z,100.00
2022-08-26T13:21:37.580Z,100.00
2022-08-26T13:24:35.765Z,100.00
2022-08-26T13:27:03.573Z,100.00
2022-08-26T13:29:30.007Z,100.00
2022-08-26T13:31:57.906Z,100.00
2022-08-26T13:34:24.774Z,100.00
2022-08-26T13:36:54.080Z,100.00
2022-08-26T13:39:22.099Z,100.00
2022-08-26T13:41:48.627Z,100.00
2022-08-26T13:44:15.082Z,100.00
2022-08-26T13:46:42.050Z,100.00
2022-08-26T13:49:08.879Z,100.00
2022-08-26T13:51:36.043Z,100.00
2022-08-26T13:54:02.480Z,100.00
2022-08-26T13:56:29.607Z,100.00
2022-08-26T13:58:57.819Z,100.00
2022-08-26T14:01:24.765Z,100.00
2022-08-26T14:03:51.431Z,100.00
2022-08-26T14:06:19.042Z,100.00
2022-08-26T14:08:46.929Z,100.00
2022-08-26T14:11:13.565Z,100.00
2022-08-26T14:13:40.419Z,100.00
2022-08-26T14:16:27.227Z,100.00
2022-08-26T14:18:54.081Z,100.00
2022-08-26T14:21:20.881Z,100.00
2022-08-26T14:23:47.648Z,100.00
2022-08-26T14:26:19.081Z,100.00
2022-08-26T14:28:57.209Z,100.00
2022-08-26T14:31:24.291Z,100.00
2022-08-26T14:33:51.102Z,100.00
2022-08-26T14:36:31.953Z,100.00
2022-08-26T14:39:00.805Z,100.00
2022-08-26T14:41:28.448Z,100.00
2022-08-26T14:44:08.016Z,100.00
2022-08-26T14:46:43.303Z,100.00
2022-08-26T14:49:10.667Z,100.00
2022-08-26T14:51:38.131Z,100.00
2022-08-26T14:54:13.449Z,100.00
2022-08-26T14:56:44.706Z,100.00
2022-08-26T14:59:11.692Z,100.00
2022-08-26T15:01:38.223Z,100.00
2022-08-26T15:04:04.767Z,100.00
2022-08-26T15:06:32.022Z,100.00
2022-08-26T15:09:08.367Z,100.00
2022-08-26T15:11:35.066Z,100.00
2022-08-26T15:14:02.255Z,100.00
2022-08-26T15:16:29.192Z,100.00
2022-08-26T15:18:56.455Z,100.00
2022-08-26T15:21:23.609Z,100.00
2022-08-26T15:23:51.919Z,100.00
2022-08-26T15:26:19.541Z,100.00
2022-08-26T15:28:46.488Z,100.00
2022-08-26T15:31:13.025Z,100.00
2022-08-26T15:33:40.312Z,100.00
2022-08-26T15:36:07.897Z,100.00
2022-08-26T15:38:38.895Z,100.00
2022-08-26T15:41:08.511Z,100.00
2022-08-26T15:43:36.807Z,100.00
2022-08-26T15:46:03.539Z,100.00
2022-08-26T15:48:30.032Z,100.00
2022-08-26T15:51:00.479Z,100.00
2022-08-26T15:53:29.403Z,100.00
2022-08-26T15:55:56.935Z,100.00
2022-08-26T15:58:25.121Z,100.00
2022-08-26T16:00:54.876Z,100.00
2022-08-26T16:03:21.478Z,100.00
2022-08-26T16:05:48.395Z,100.00
2022-08-26T16:08:15.392Z,100.00
2022-08-26T16:10:49.780Z,100.00
2022-08-26T16:13:19.199Z,100.00
2022-08-26T16:15:47.456Z,100.00
2022-08-26T16:18:15.386Z,100.00
2022-08-26T16:21:05.004Z,100.00
2022-08-26T16:23:37.124Z,100.00
2022-08-26T16:26:11.823Z,100.00
2022-08-26T16:28:38.933Z,100.00
2022-08-26T16:31:06.240Z,100.00
2022-08-26T16:33:32.835Z,100.00
2022-08-26T16:35:59.262Z,100.00
2022-08-26T16:38:25.702Z,100.00
2022-08-26T16:40:52.124Z,100.00
2022-08-26T16:43:18.584Z,100.00
2022-08-26T16:45:45.006Z,100.00
2022-08-26T16:48:11.466Z,100.00
2022-08-26T16:50:40.568Z,100.00
2022-08-26T16:53:07.824Z,100.00
2022-08-26T16:55:34.939Z,100.00
2022-08-26T16:58:01.443Z,100.00
2022-08-26T17:00:31.961Z,100.00
2022-08-26T17:03:00.197Z,100.00
2022-08-26T17:05:28.123Z,100.00
2022-08-26T17:07:56.870Z,100.00
2022-08-26T17:10:24.779Z,100.00
2022-08-26T17:12:51.813Z,100.00
2022-08-26T17:15:18.771Z,100.00
2022-08-26T17:17:45.343Z,100.00
2022-08-26T17:20:16.434Z,100.00
2022-08-26T17:22:47.902Z,100.00
2022-08-26T17:25:20.472Z,100.00
2022-08-26T17:27:46.992Z,100.00
2022-08-26T17:30:14.064Z,100.00
2022-08-26T17:32:42.261Z,100.00
2022-08-26T17:35:10.694Z,100.00
2022-08-26T17:37:39.665Z,100.00
2022-08-26T17:40:09.347Z,100.00
2022-08-26T17:42:37.669Z,100.00
2022-08-26T17:45:04.609Z,100.00
2022-08-26T17:47:33.304Z,100.00
2022-08-26T17:50:01.346Z,100.00
2022-08-26T17:52:28.776Z,100.00
2022-08-26T17:55:01.932Z,100.00
2022-08-26T17:57:29.218Z,100.00
2022-08-26T17:59:56.500Z,100.00
2022-08-26T18:02:23.868Z,100.00
2022-08-26T18:04:59.439Z,100.00
2022-08-26T18:07:27.182Z,100.00
2022-08-26T18:09:53.642Z,100.00
2022-08-26T18:12:20.468Z,100.00
2022-08-26T18:14:51.902Z,100.00
2022-08-26T18:17:19.343Z,100.00
2022-08-26T18:19:46.883Z,100.00
2022-08-26T18:22:15.560Z,100.00
2022-08-26T18:24:42.263Z,100.00
2022-08-26T18:27:24.695Z,100.00
2022-08-26T18:29:51.167Z,100.00
2022-08-26T18:32:17.754Z,100.00
2022-08-26T18:34:44.196Z,100.00
2022-08-26T18:39:42.254Z,100.00
2022-08-26T18:42:08.905Z,100.00
2022-08-26T18:44:35.356Z,100.00
2022-08-26T18:47:01.802Z,100.00
2022-08-26T18:49:28.784Z,100.00
2022-08-26T18:51:55.277Z,100.00
2022-08-26T18:54:22.150Z,100.00
2022-08-26T18:56:48.669Z,100.00
2022-08-26T18:59:15.158Z,100.00
2022-08-26T19:01:42.430Z,100.00
2022-08-26T19:04:14.719Z,100.00
2022-08-26T19:06:42.574Z,100.00
2022-08-26T19:09:11.763Z,100.00
2022-08-26T19:11:42.239Z,100.00
2022-08-26T19:14:12.982Z,100.00
2022-08-26T19:16:41.273Z,100.00
2022-08-26T19:19:07.792Z,100.00
2022-08-26T19:21:35.728Z,100.00
2022-08-26T19:24:05.881Z,100.00
2022-08-26T19:26:32.819Z,100.00
2022-08-26T19:28:59.584Z,100.00
2022-08-26T19:31:26.309Z,100.00
2022-08-26T19:33:52.903Z,100.00
2022-08-26T19:36:22.446Z,100.00
2022-08-26T19:38:49.922Z,100.00
2022-08-26T19:41:19.657Z,100.00
2022-08-26T19:43:46.396Z,100.00
2022-08-26T19:46:17.195Z,100.00
2022-08-26T19:48:44.890Z,100.00
2022-08-26T19:51:19.210Z,100.00
2022-08-26T19:53:47.732Z,100.00
2022-08-26T19:56:14.994Z,100.00
2022-08-26T19:58:41.695Z,100.00
2022-08-26T20:01:09.021Z,100.00
2022-08-26T20:03:36.045Z,100.00
2022-08-26T20:06:05.139Z,100.00
2022-08-26T20:08:34.536Z,100.00
2022-08-26T20:11:04.816Z,100.00
2022-08-26T20:13:32.154Z,100.00
2022-08-26T20:15:58.870Z,100.00
2022-08-26T20:18:43.939Z,100.00
2022-08-26T20:21:29.292Z,100.00
2022-08-26T20:24:00.385Z,100.00
2022-08-26T20:26:28.646Z,100.00
2022-08-26T20:28:56.150Z,100.00
2022-08-26T20:31:24.054Z,100.00
2022-08-26T20:33:51.664Z,100.00
2022-08-26T20:36:20.418Z,100.00
2022-08-26T20:38:48.625Z,100.00
2022-08-26T20:41:15.227Z,100.00
2022-08-26T20:43:46.085Z,100.00
2022-08-26T20:46:18.016Z,100.00
2022-08-26T20:48:47.768Z,100.00
2022-08-26T20:51:14.787Z,100.00
2022-08-26T20:53:41.414Z,100.00
2022-08-26T20:56:09.330Z,100.00
2022-08-26T20:58:37.260Z,100.00
2022-08-26T21:01:07.819Z,100.00
2022-08-26T21:03:36.145Z,100.00
2022-08-26T21:06:03.549Z,100.00
2022-08-26T21:08:30.044Z,100.00
2022-08-26T21:10:59.624Z,100.00
2022-08-26T21:13:26.094Z,100.00
2022-08-26T21:15:55.867Z,100.00
2022-08-26T21:18:22.342Z,100.00
2022-08-26T21:20:48.779Z,100.00
2022-08-26T21:23:15.220Z,100.00
2022-08-26T21:25:41.780Z,100.00
2022-08-26T21:28:08.302Z,100.00
2022-08-26T21:30:37.864Z,100.00
2022-08-26T21:33:04.309Z,100.00
2022-08-26T21:35:30.723Z,100.00
2022-08-26T21:37:57.147Z,100.00
2022-08-26T21:40:23.588Z,100.00
2022-08-26T21:42:50.050Z,100.00
2022-08-26T21:45:16.938Z,100.00
2022-08-26T21:47:43.666Z,100.00
2022-08-26T21:50:10.364Z,100.00
2022-08-26T21:52:37.822Z,100.00
2022-08-26T21:55:08.826Z,100.00
2022-08-26T21:57:35.677Z,100.00
2022-08-26T22:00:04.570Z,100.00
2022-08-26T22:02:32.615Z,100.00
2022-08-26T22:04:59.106Z,100.00
2022-08-26T22:07:25.535Z,100.00
2022-08-26T22:09:52.012Z,100.00
2022-08-26T22:12:18.993Z,100.00
2022-08-26T22:14:45.652Z,100.00
2022-08-26T22:17:12.167Z,100.00
2022-08-26T22:19:45.621Z,100.00
2022-08-26T22:22:13.906Z,100.00
2022-08-26T22:24:40.351Z,100.00
2022-08-26T22:27:06.848Z,100.00
2022-08-26T22:29:33.364Z,100.00
2022-08-26T22:32:00.944Z,100.00
2022-08-26T22:34:28.033Z,100.00
2022-08-26T22:36:54.560Z,100.00
2022-08-26T22:39:24.237Z,100.00
2022-08-26T22:41:52.108Z,100.00
2022-08-26T22:44:20.461Z,100.00
2022-08-26T22:46:48.390Z,100.00
2022-08-26T22:49:16.436Z,100.00
2022-08-26T22:51:44.705Z,100.00
2022-08-26T22:54:11.458Z,100.00
2022-08-26T22:56:38.646Z,100.00
2022-08-26T22:59:06.808Z,100.00
2022-08-26T23:01:38.797Z,100.00
2022-08-26T23:04:06.853Z,100.00
2022-08-26T23:06:38.087Z,100.00
2022-08-26T23:09:06.599Z,100.00
2022-08-26T23:11:33.919Z,100.00
2022-08-26T23:14:06.198Z,100.00
2022-08-26T23:16:39.336Z,100.00
2022-08-26T23:19:06.582Z,100.00
2022-08-26T23:21:33.194Z,100.00
2022-08-26T23:23:59.742Z,100.00
2022-08-26T23:26:26.214Z,100.00
2022-08-26T23:28:53.263Z,100.00
2022-08-26T23:31:19.714Z,100.00
2022-08-26T23:34:04.803Z,100.00
2022-08-26T23:36:31.282Z,100.00
2022-08-26T23:39:02.258Z,100.00
2022-08-26T23:41:28.694Z,100.00
2022-08-26T23:43:55.176Z,100.00
2022-08-26T23:46:21.603Z,100.00
2022-08-26T23:48:48.448Z,100.00
2022-08-26T23:51:33.222Z,100.00
2022-08-26T23:53:59.709Z,100.00
2022-08-26T23:56:26.744Z,100.00
2022-08-26T23:58:53.782Z,100.00
